M V Trinidad — LAIY4 — position and weather

sailwx.info

Track history (hours):
 
Tides and Currents Weather Stations Pressure Air Temp Water Temp Dewpoint Dewpoint Depression Visibility Wind Speed Wind Dir Waves Ship Positions

M V Trinidad

Last reported at 2015-Jun-25 06:28 UTC. Time now 2015-Jul-06 07:08 UTC.
Position N 31°36' W 123°60'.
Warning: this ship's position is 11 days out of date.

Length 189 m; draft 8.8 m.

Type: Cargo ship. MMSI: 257425411.

Date/timePositionNaut miles runAvg speedWind from/ knotsBaromVisibWave heightAir tempDewpointWater temp
2015-Jun-25 06:28N 31°36' W 123°60'1314.1
2015-Jun-25 05:32N 31°27' W 123°48'1514.1
2015-Jun-25 04:30N 31°18' W 123°34'1614.0
2015-Jun-25 03:20N 31°08' W 123°20'1314.1
2015-Jun-25 02:26N 31°00' W 123°08'1314.3
2015-Jun-25 01:33N 30°52' W 122°56'2114.3
2015-Jun-25 00:04N 30°39' W 122°37'814.1
2015-Jun-24 23:32N 30°34' W 122°31'1413.8
2015-Jun-24 22:33N 30°26' W 122°18'1513.1
2015-Jun-24 21:23N 30°22' W 122°01'1314.8
2015-Jun-24 20:32N 30°24' W 121°47'4414.8
2015-Jun-24 17:33N 30°34' W 120°57'1514.7
2015-Jun-24 16:33N 30°37' W 120°40'1514.7
2015-Jun-24 15:33N 30°40' W 120°24'1514.6
2015-Jun-24 14:33N 30°43' W 120°07'1414.5
2015-Jun-24 13:33N 30°46' W 119°51'2015.2
2015-Jun-24 12:14N 30°51' W 119°28'1015.2
2015-Jun-24 11:33N 30°53' W 119°16'1515.1
2015-Jun-24 10:33N 30°57' W 118°59'1515.1
2015-Jun-24 09:32N 30°60' W 118°41'1414.2
2015-Jun-24 08:33N 31°06' W 118°27'1615.8
2015-Jun-24 07:33N 31°19' W 118°17'1616.0
2015-Jun-24 06:33N 31°33' W 118°06'1615.9
2015-Jun-24 05:33N 31°46' W 117°57'1514.9
2015-Jun-24 04:33N 31°59' W 117°47'1514.8
2015-Jun-24 03:33N 32°11' W 117°37'1514.9
2015-Jun-24 02:33N 32°23' W 117°27'1514.8
2015-Jun-24 01:33N 32°35' W 117°16'9 9.0
2015-Jun-24 00:33N 32°43' W 117°11'5 5.1
2015-Jun-23 23:32N 32°39' W 117°07'0 0.0
2015-Jun-23 22:32N 32°39' W 117°07'0 0.0
2015-Jun-23 21:32N 32°39' W 117°07'0 0.0
2015-Jun-23 20:32N 32°39' W 117°07'0 0.0
2015-Jun-23 19:29N 32°39' W 117°07'0 0.0
2015-Jun-23 19:05N 32°39' W 117°07'12 0.5
2015-Jun-22 19:34N 32°35' W 117°21'1 0.9
2015-Jun-22 18:33N 32°35' W 117°22'3 2.9
2015-Jun-22 17:33N 32°36' W 117°25'1413.9
2015-Jun-22 16:34N 32°36' W 117°42'1313.1
2015-Jun-22 15:34N 32°43' W 117°55'1413.8
2015-Jun-22 14:33N 32°53' W 118°06'1413.9
2015-Jun-22 13:34N 33°02' W 118°19'1414.4
2015-Jun-22 12:33N 33°12' W 118°31'1414.5
2015-Jun-22 11:33N 33°23' W 118°42'1413.7
2015-Jun-22 10:34N 33°35' W 118°51'1313.4
2015-Jun-22 09:33N 33°47' W 118°57'1313.5
2015-Jun-22 08:33N 33°57' W 119°08'1110.6
2015-Jun-22 07:33N 34°06' W 119°15'3 3.2
2015-Jun-22 06:31N 34°09' W 119°12'0 0.0
2015-Jun-22 05:14N 34°09' W 119°12'0 0.0
2015-Jun-22 04:32N 34°09' W 119°12'0 0.0
2015-Jun-22 03:32N 34°09' W 119°12'0 0.0
2015-Jun-22 02:32N 34°09' W 119°12'0 0.0
2015-Jun-22 01:32N 34°09' W 119°12'0 0.0
2015-Jun-22 00:32N 34°09' W 119°12'0 0.0
2015-Jun-21 23:32N 34°09' W 119°12'0 0.0
2015-Jun-21 22:20N 34°09' W 119°12'0 0.0
2015-Jun-21 21:29N 34°09' W 119°12'0 0.0
2015-Jun-21 20:32N 34°09' W 119°12'0 0.0
2015-Jun-21 17:32N 34°09' W 119°12'0 0.0
2015-Jun-21 16:29N 34°09' W 119°12'0 0.0
2015-Jun-21 15:26N 34°09' W 119°12'0 0.1
2015-Jun-21 12:27N 34°09' W 119°12'6 6.6
2015-Jun-21 11:33N 34°04' W 119°16'10 9.8
2015-Jun-21 10:34N 34°05' W 119°28'1414.5
2015-Jun-21 09:34N 34°09' W 119°45'1514.6
2015-Jun-21 08:34N 34°13' W 120°02'1814.1
2015-Jun-21 07:17N 34°18' W 120°23'1014.2
2015-Jun-21 06:33N 34°20' W 120°35'1413.9
2015-Jun-21 05:33N 34°24' W 120°51'1111.3
2015-Jun-21 04:33N 34°32' W 121°00'1110.7
2015-Jun-21 03:33N 34°34' W 121°13'1211.8
2015-Jun-21 02:33N 34°45' W 121°18'6 5.6
2015-Jun-21 01:33N 34°50' W 121°22'1 1.5
2015-Jun-21 00:33N 34°51' W 121°23'2 1.7
2015-Jun-20 23:33N 34°52' W 121°24'2 1.8
2015-Jun-20 22:33N 34°54' W 121°25'2 2.0
2015-Jun-20 21:33N 34°55' W 121°27'2 1.9
2015-Jun-20 20:33N 34°57' W 121°28'2 1.6
2015-Jun-20 19:33N 34°58' W 121°29'1 1.5
2015-Jun-20 18:33N 34°60' W 121°29'2 1.8
2015-Jun-20 17:33N 35°01' W 121°30'4 3.8
2015-Jun-20 16:33N 35°05' W 121°30'1413.8
2015-Jun-20 15:33N 35°17' W 121°40'1413.9
2015-Jun-20 14:34N 35°28' W 121°49'1414.1
2015-Jun-20 13:34N 35°40' W 121°59'1414.1
2015-Jun-20 12:34N 35°53' W 122°06'1414.1
2015-Jun-20 11:33N 36°06' W 122°13'1414.0
2015-Jun-20 10:33N 36°19' W 122°19'1414.3
2015-Jun-20 09:33N 36°32' W 122°26'1414.1
2015-Jun-20 08:33N 36°45' W 122°32'1414.2
2015-Jun-20 07:33N 36°58' W 122°38'1414.0
2015-Jun-20 06:34N 37°12' W 122°43'1514.6
2015-Jun-20 05:34N 37°26' W 122°44'1414.4
2015-Jun-20 04:34N 37°41' W 122°43'1111.4
2015-Jun-20 03:33N 37°48' W 122°32'1111.3
2015-Jun-20 02:33N 37°58' W 122°26'1212.0
2015-Jun-20 01:33N 38°04' W 122°12'4 0.3
2015-Jun-19 13:30N 38°02' W 122°08'0 0.0
2015-Jun-19 12:30N 38°02' W 122°08'0 0.0
2015-Jun-19 11:24N 38°02' W 122°08'0 0.1
2015-Jun-19 10:32N 38°02' W 122°08'9 9.4
2015-Jun-19 09:33N 38°03' W 122°20'1212.4
2015-Jun-19 08:33N 37°51' W 122°24'6 6.2
2015-Jun-19 07:32N 37°45' W 122°21'0 0.0
2015-Jun-19 06:17N 37°46' W 122°21'0 0.0
2015-Jun-19 05:29N 37°46' W 122°21'0 0.0
2015-Jun-19 04:32N 37°46' W 122°21'0 0.1
2015-Jun-19 03:29N 37°46' W 122°21'0 0.1
2015-Jun-19 02:29N 37°46' W 122°21'0 0.0
2015-Jun-19 01:32N 37°46' W 122°21'0 0.0
2015-Jun-19 00:29N 37°46' W 122°21'0 0.1
2015-Jun-18 23:32N 37°46' W 122°21'0 0.0
2015-Jun-18 22:29N 37°46' W 122°21'0 0.1
2015-Jun-18 21:32N 37°46' W 122°21'0 0.0
2015-Jun-18 20:32N 37°45' W 122°21'0 0.0
2015-Jun-18 19:32N 37°45' W 122°21'0 0.0
2015-Jun-18 18:32N 37°45' W 122°21'0 0.0
2015-Jun-18 17:29N 37°46' W 122°21'0 0.1
2015-Jun-18 16:29N 37°46' W 122°21'0 0.1
2015-Jun-18 15:29N 37°46' W 122°21'0 0.0
2015-Jun-18 14:29N 37°46' W 122°21'0 0.0
2015-Jun-18 13:29N 37°46' W 122°21'0 0.0
2015-Jun-18 12:32N 37°46' W 122°21'0 0.0
2015-Jun-18 11:29N 37°46' W 122°21'0 0.0
2015-Jun-18 10:32N 37°46' W 122°21'0 0.1
2015-Jun-18 09:32N 37°46' W 122°21'0 0.0
2015-Jun-18 08:32N 37°46' W 122°21'0 0.1
2015-Jun-18 07:29N 37°45' W 122°21'0 0.0
2015-Jun-18 06:29N 37°45' W 122°21'0 0.0
2015-Jun-18 05:29N 37°45' W 122°21'0 0.0
2015-Jun-18 04:29N 37°45' W 122°21'0 0.1
2015-Jun-18 03:29N 37°46' W 122°21'0 0.1
2015-Jun-18 02:32N 37°46' W 122°21'0 0.1
2015-Jun-18 01:32N 37°46' W 122°21'0 0.0
2015-Jun-18 00:29N 37°46' W 122°21'0 0.1
2015-Jun-17 23:29N 37°46' W 122°21'0 0.0
2015-Jun-17 22:29N 37°46' W 122°21'0 0.1
2015-Jun-17 21:32N 37°46' W 122°21'0 0.0
2015-Jun-17 20:32N 37°46' W 122°21'0 0.1
2015-Jun-17 19:23N 37°45' W 122°21'0 0.1
2015-Jun-17 18:32N 37°45' W 122°21'0 0.0
2015-Jun-17 17:32N 37°45' W 122°21'0 0.0
2015-Jun-17 16:32N 37°45' W 122°21'0 0.1
2015-Jun-17 15:32N 37°46' W 122°21'0 0.1
2015-Jun-17 14:32N 37°46' W 122°21'0 0.0
2015-Jun-17 13:29N 37°46' W 122°21'0 0.0
2015-Jun-17 12:32N 37°46' W 122°21'0 0.0
2015-Jun-17 11:29N 37°46' W 122°21'0 0.0
2015-Jun-17 10:29N 37°46' W 122°21'0 0.1
2015-Jun-17 09:29N 37°46' W 122°21'0 0.1
2015-Jun-17 08:32N 37°46' W 122°21'0 0.0
2015-Jun-17 07:32N 37°46' W 122°21'0 0.1
2015-Jun-17 06:32N 37°45' W 122°21'0 0.0
2015-Jun-17 05:32N 37°45' W 122°21'0 0.0
2015-Jun-17 04:32N 37°45' W 122°21'0 0.0
2015-Jun-17 03:32N 37°45' W 122°21'0 0.1
2015-Jun-17 02:32N 37°46' W 122°21'0 0.1
2015-Jun-17 01:32N 37°46' W 122°21'0 0.0
2015-Jun-17 00:32N 37°46' W 122°21'0 0.0
2015-Jun-16 23:32N 37°46' W 122°21'0 0.1
2015-Jun-16 22:32N 37°46' W 122°21'0 0.0
2015-Jun-16 21:32N 37°46' W 122°21'0 0.0
2015-Jun-16 20:29N 37°46' W 122°21'2 2.2
2015-Jun-16 19:33N 37°47' W 122°22'1211.6
2015-Jun-16 18:34N 37°46' W 122°37'1110.8
2015-Jun-16 17:34N 37°48' W 122°50'1110.9
2015-Jun-16 16:34N 37°53' W 123°02'1413.9
2015-Jun-16 15:34N 38°02' W 123°16'1211.8
2015-Jun-16 14:33N 38°09' W 123°28'1212.4
2015-Jun-16 13:33N 38°10' W 123°44'1212.2
2015-Jun-16 12:33N 38°10' W 123°59'1212.0
2015-Jun-16 11:32N 38°10' W 124°15'1212.3
2015-Jun-16 10:33N 38°10' W 124°30'1212.4
2015-Jun-16 09:33N 38°10' W 124°46'1313.1
2015-Jun-16 08:33N 38°10' W 125°02'1313.0
2015-Jun-16 07:33N 38°10' W 125°19'1212.4
2015-Jun-16 06:33N 38°10' W 125°35'1212.0
2015-Jun-16 05:33N 38°10' W 125°50'1412.1
2015-Jun-16 04:24N 38°10' W 126°08'2412.9
2015-Jun-16 02:32N 38°10' W 126°39'6210.2
2015-Jun-15 20:26N 38°10' W 127°58'1213.2
2015-Jun-15 19:33N 38°15' W 128°11'1413.7
2015-Jun-15 18:33N 38°22' W 128°26'1614.0
2015-Jun-15 17:26N 38°30' W 128°43'1414.0
2015-Jun-15 16:26N 38°37' W 128°59'1213.9
2015-Jun-15 15:34N 38°43' W 129°12'1413.3
2015-Jun-15 14:32N 38°50' W 129°28'2813.5
2015-Jun-15 12:26N 39°04' W 129°59'4213.7
2015-Jun-15 09:24N 39°25' W 130°46'1213.7
2015-Jun-15 08:33N 39°30' W 130°59'  
Track history (hours):
 
Tides and Currents Weather Stations Pressure Air Temp Water Temp Dewpoint Dewpoint Depression Visibility Wind Speed Wind Dir Waves Ship Positions

M V Trinidad

Last reported at 2015-Jun-25 06:28 UTC. Time now 2015-Jul-06 07:08 UTC.
Position N 31°36' W 123°60'.
Warning: this ship's position is 11 days out of date.

Length 189 m; draft 8.8 m.

Type: Cargo ship. MMSI: 257425411.

Date/timePositionNaut miles runAvg speedWind from/ knotsBaromVisibWave heightAir tempDewpointWater temp
2015-Jun-25 06:28N 31°36' W 123°60'1314.1
2015-Jun-25 05:32N 31°27' W 123°48'1514.1
2015-Jun-25 04:30N 31°18' W 123°34'1614.0
2015-Jun-25 03:20N 31°08' W 123°20'1314.1
2015-Jun-25 02:26N 31°00' W 123°08'1314.3
2015-Jun-25 01:33N 30°52' W 122°56'2114.3
2015-Jun-25 00:04N 30°39' W 122°37'814.1
2015-Jun-24 23:32N 30°34' W 122°31'1413.8
2015-Jun-24 22:33N 30°26' W 122°18'1513.1
2015-Jun-24 21:23N 30°22' W 122°01'1314.8
2015-Jun-24 20:32N 30°24' W 121°47'4414.8
2015-Jun-24 17:33N 30°34' W 120°57'1514.7
2015-Jun-24 16:33N 30°37' W 120°40'1514.7
2015-Jun-24 15:33N 30°40' W 120°24'1514.6
2015-Jun-24 14:33N 30°43' W 120°07'1414.5
2015-Jun-24 13:33N 30°46' W 119°51'2015.2
2015-Jun-24 12:14N 30°51' W 119°28'1015.2
2015-Jun-24 11:33N 30°53' W 119°16'1515.1
2015-Jun-24 10:33N 30°57' W 118°59'1515.1
2015-Jun-24 09:32N 30°60' W 118°41'1414.2
2015-Jun-24 08:33N 31°06' W 118°27'1615.8
2015-Jun-24 07:33N 31°19' W 118°17'1616.0
2015-Jun-24 06:33N 31°33' W 118°06'1615.9
2015-Jun-24 05:33N 31°46' W 117°57'1514.9
2015-Jun-24 04:33N 31°59' W 117°47'1514.8
2015-Jun-24 03:33N 32°11' W 117°37'1514.9
2015-Jun-24 02:33N 32°23' W 117°27'1514.8
2015-Jun-24 01:33N 32°35' W 117°16'9 9.0
2015-Jun-24 00:33N 32°43' W 117°11'5 5.1
2015-Jun-23 23:32N 32°39' W 117°07'0 0.0
2015-Jun-23 22:32N 32°39' W 117°07'0 0.0
2015-Jun-23 21:32N 32°39' W 117°07'0 0.0
2015-Jun-23 20:32N 32°39' W 117°07'0 0.0
2015-Jun-23 19:29N 32°39' W 117°07'0 0.0
2015-Jun-23 19:05N 32°39' W 117°07'12 0.5
2015-Jun-22 19:34N 32°35' W 117°21'1 0.9
2015-Jun-22 18:33N 32°35' W 117°22'3 2.9
2015-Jun-22 17:33N 32°36' W 117°25'1413.9
2015-Jun-22 16:34N 32°36' W 117°42'1313.1
2015-Jun-22 15:34N 32°43' W 117°55'1413.8
2015-Jun-22 14:33N 32°53' W 118°06'1413.9
2015-Jun-22 13:34N 33°02' W 118°19'1414.4
2015-Jun-22 12:33N 33°12' W 118°31'1414.5
2015-Jun-22 11:33N 33°23' W 118°42'1413.7
2015-Jun-22 10:34N 33°35' W 118°51'1313.4
2015-Jun-22 09:33N 33°47' W 118°57'1313.5
2015-Jun-22 08:33N 33°57' W 119°08'1110.6
2015-Jun-22 07:33N 34°06' W 119°15'3 3.2
2015-Jun-22 06:31N 34°09' W 119°12'0 0.0
2015-Jun-22 05:14N 34°09' W 119°12'0 0.0
2015-Jun-22 04:32N 34°09' W 119°12'0 0.0
2015-Jun-22 03:32N 34°09' W 119°12'0 0.0
2015-Jun-22 02:32N 34°09' W 119°12'0 0.0
2015-Jun-22 01:32N 34°09' W 119°12'0 0.0
2015-Jun-22 00:32N 34°09' W 119°12'0 0.0
2015-Jun-21 23:32N 34°09' W 119°12'0 0.0
2015-Jun-21 22:20N 34°09' W 119°12'0 0.0
2015-Jun-21 21:29N 34°09' W 119°12'0 0.0
2015-Jun-21 20:32N 34°09' W 119°12'0 0.0
2015-Jun-21 17:32N 34°09' W 119°12'0 0.0
2015-Jun-21 16:29N 34°09' W 119°12'0 0.0
2015-Jun-21 15:26N 34°09' W 119°12'0 0.1
2015-Jun-21 12:27N 34°09' W 119°12'6 6.6
2015-Jun-21 11:33N 34°04' W 119°16'10 9.8
2015-Jun-21 10:34N 34°05' W 119°28'1414.5
2015-Jun-21 09:34N 34°09' W 119°45'1514.6
2015-Jun-21 08:34N 34°13' W 120°02'1814.1
2015-Jun-21 07:17N 34°18' W 120°23'1014.2
2015-Jun-21 06:33N 34°20' W 120°35'1413.9
2015-Jun-21 05:33N 34°24' W 120°51'1111.3
2015-Jun-21 04:33N 34°32' W 121°00'1110.7
2015-Jun-21 03:33N 34°34' W 121°13'1211.8
2015-Jun-21 02:33N 34°45' W 121°18'6 5.6
2015-Jun-21 01:33N 34°50' W 121°22'1 1.5
2015-Jun-21 00:33N 34°51' W 121°23'2 1.7
2015-Jun-20 23:33N 34°52' W 121°24'2 1.8
2015-Jun-20 22:33N 34°54' W 121°25'2 2.0
2015-Jun-20 21:33N 34°55' W 121°27'2 1.9
2015-Jun-20 20:33N 34°57' W 121°28'2 1.6
2015-Jun-20 19:33N 34°58' W 121°29'1 1.5
2015-Jun-20 18:33N 34°60' W 121°29'2 1.8
2015-Jun-20 17:33N 35°01' W 121°30'4 3.8
2015-Jun-20 16:33N 35°05' W 121°30'1413.8
2015-Jun-20 15:33N 35°17' W 121°40'1413.9
2015-Jun-20 14:34N 35°28' W 121°49'1414.1
2015-Jun-20 13:34N 35°40' W 121°59'1414.1
2015-Jun-20 12:34N 35°53' W 122°06'1414.1
2015-Jun-20 11:33N 36°06' W 122°13'1414.0
2015-Jun-20 10:33N 36°19' W 122°19'1414.3
2015-Jun-20 09:33N 36°32' W 122°26'1414.1
2015-Jun-20 08:33N 36°45' W 122°32'1414.2
2015-Jun-20 07:33N 36°58' W 122°38'1414.0
2015-Jun-20 06:34N 37°12' W 122°43'1514.6
2015-Jun-20 05:34N 37°26' W 122°44'1414.4
2015-Jun-20 04:34N 37°41' W 122°43'1111.4
2015-Jun-20 03:33N 37°48' W 122°32'1111.3
2015-Jun-20 02:33N 37°58' W 122°26'1212.0
2015-Jun-20 01:33N 38°04' W 122°12'4 0.3
2015-Jun-19 13:30N 38°02' W 122°08'0 0.0
2015-Jun-19 12:30N 38°02' W 122°08'0 0.0
2015-Jun-19 11:24N 38°02' W 122°08'0 0.1
2015-Jun-19 10:32N 38°02' W 122°08'9 9.4
2015-Jun-19 09:33N 38°03' W 122°20'1212.4
2015-Jun-19 08:33N 37°51' W 122°24'6 6.2
2015-Jun-19 07:32N 37°45' W 122°21'0 0.0
2015-Jun-19 06:17N 37°46' W 122°21'0 0.0
2015-Jun-19 05:29N 37°46' W 122°21'0 0.0
2015-Jun-19 04:32N 37°46' W 122°21'0 0.1
2015-Jun-19 03:29N 37°46' W 122°21'0 0.1
2015-Jun-19 02:29N 37°46' W 122°21'0 0.0
2015-Jun-19 01:32N 37°46' W 122°21'0 0.0
2015-Jun-19 00:29N 37°46' W 122°21'0 0.1
2015-Jun-18 23:32N 37°46' W 122°21'0 0.0
2015-Jun-18 22:29N 37°46' W 122°21'0 0.1
2015-Jun-18 21:32N 37°46' W 122°21'0 0.0
2015-Jun-18 20:32N 37°45' W 122°21'0 0.0
2015-Jun-18 19:32N 37°45' W 122°21'0 0.0
2015-Jun-18 18:32N 37°45' W 122°21'0 0.0
2015-Jun-18 17:29N 37°46' W 122°21'0 0.1
2015-Jun-18 16:29N 37°46' W 122°21'0 0.1
2015-Jun-18 15:29N 37°46' W 122°21'0 0.0
2015-Jun-18 14:29N 37°46' W 122°21'0 0.0
2015-Jun-18 13:29N 37°46' W 122°21'0 0.0
2015-Jun-18 12:32N 37°46' W 122°21'0 0.0
2015-Jun-18 11:29N 37°46' W 122°21'0 0.0
2015-Jun-18 10:32N 37°46' W 122°21'0 0.1
2015-Jun-18 09:32N 37°46' W 122°21'0 0.0
2015-Jun-18 08:32N 37°46' W 122°21'0 0.1
2015-Jun-18 07:29N 37°45' W 122°21'0 0.0
2015-Jun-18 06:29N 37°45' W 122°21'0 0.0
2015-Jun-18 05:29N 37°45' W 122°21'0 0.0
2015-Jun-18 04:29N 37°45' W 122°21'0 0.1
2015-Jun-18 03:29N 37°46' W 122°21'0 0.1
2015-Jun-18 02:32N 37°46' W 122°21'0 0.1
2015-Jun-18 01:32N 37°46' W 122°21'0 0.0
2015-Jun-18 00:29N 37°46' W 122°21'0 0.1
2015-Jun-17 23:29N 37°46' W 122°21'0 0.0
2015-Jun-17 22:29N 37°46' W 122°21'0 0.1
2015-Jun-17 21:32N 37°46' W 122°21'0 0.0
2015-Jun-17 20:32N 37°46' W 122°21'0 0.1
2015-Jun-17 19:23N 37°45' W 122°21'0 0.1
2015-Jun-17 18:32N 37°45' W 122°21'0 0.0
2015-Jun-17 17:32N 37°45' W 122°21'0 0.0
2015-Jun-17 16:32N 37°45' W 122°21'0 0.1
2015-Jun-17 15:32N 37°46' W 122°21'0 0.1
2015-Jun-17 14:32N 37°46' W 122°21'0 0.0
2015-Jun-17 13:29N 37°46' W 122°21'0 0.0
2015-Jun-17 12:32N 37°46' W 122°21'0 0.0
2015-Jun-17 11:29N 37°46' W 122°21'0 0.0
2015-Jun-17 10:29N 37°46' W 122°21'0 0.1
2015-Jun-17 09:29N 37°46' W 122°21'0 0.1
2015-Jun-17 08:32N 37°46' W 122°21'0 0.0
2015-Jun-17 07:32N 37°46' W 122°21'0 0.1
2015-Jun-17 06:32N 37°45' W 122°21'0 0.0
2015-Jun-17 05:32N 37°45' W 122°21'0 0.0
2015-Jun-17 04:32N 37°45' W 122°21'0 0.0
2015-Jun-17 03:32N 37°45' W 122°21'0 0.1
2015-Jun-17 02:32N 37°46' W 122°21'0 0.1
2015-Jun-17 01:32N 37°46' W 122°21'0 0.0
2015-Jun-17 00:32N 37°46' W 122°21'0 0.0
2015-Jun-16 23:32N 37°46' W 122°21'0 0.1
2015-Jun-16 22:32N 37°46' W 122°21'0 0.0
2015-Jun-16 21:32N 37°46' W 122°21'0 0.0
2015-Jun-16 20:29N 37°46' W 122°21'2 2.2
2015-Jun-16 19:33N 37°47' W 122°22'1211.6
2015-Jun-16 18:34N 37°46' W 122°37'1110.8
2015-Jun-16 17:34N 37°48' W 122°50'1110.9
2015-Jun-16 16:34N 37°53' W 123°02'1413.9
2015-Jun-16 15:34N 38°02' W 123°16'1211.8
2015-Jun-16 14:33N 38°09' W 123°28'1212.4
2015-Jun-16 13:33N 38°10' W 123°44'1212.2
2015-Jun-16 12:33N 38°10' W 123°59'1212.0
2015-Jun-16 11:32N 38°10' W 124°15'1212.3
2015-Jun-16 10:33N 38°10' W 124°30'1212.4
2015-Jun-16 09:33N 38°10' W 124°46'1313.1
2015-Jun-16 08:33N 38°10' W 125°02'1313.0
2015-Jun-16 07:33N 38°10' W 125°19'1212.4
2015-Jun-16 06:33N 38°10' W 125°35'1212.0
2015-Jun-16 05:33N 38°10' W 125°50'1412.1
2015-Jun-16 04:24N 38°10' W 126°08'2412.9
2015-Jun-16 02:32N 38°10' W 126°39'6210.2
2015-Jun-15 20:26N 38°10' W 127°58'1213.2
2015-Jun-15 19:33N 38°15' W 128°11'1413.7
2015-Jun-15 18:33N 38°22' W 128°26'1614.0
2015-Jun-15 17:26N 38°30' W 128°43'1414.0
2015-Jun-15 16:26N 38°37' W 128°59'1213.9
2015-Jun-15 15:34N 38°43' W 129°12'1413.3
2015-Jun-15 14:32N 38°50' W 129°28'2813.5
2015-Jun-15 12:26N 39°04' W 129°59'4213.7
2015-Jun-15 09:24N 39°25' W 130°46'1213.7
2015-Jun-15 08:33N 39°30' W 130°59'  

Dump ship's entire track history